Terminal Aerodrome Forecast
Issued by NWS La Crosse, WI

Home | Current Version | Previous Version | Text Only | Print | Product List | Glossary On
Versions: 1 2 3 4 5 6 7 8 9 10 11 12 13 14 15 16 17 18 19 20 21 22 23 24 25 26 27 28 29 30 31 32 33 34 35 36 37 38
000
FTUS43 KARX 211730
TAFRST
TAF
KRST 211730Z 2118/2218 18018G28KT P6SM BKN025
     FM220000 19013KT P6SM SHRA VCTS BKN020CB
      TEMPO 2201/2203 3SM TSRA BKN015CB
     FM220500 26009KT P6SM -SHRA BKN025
     FM220700 27008KT P6SM BKN045
     FM221300 28007KT P6SM SCT250=

USA.gov is the U.S. government's official web portal to all federal, state and local government web resources and services.